Time;durP1;ratioP1;P1;durP2;ratioP2;P2;SDS_P1;SDS_P2;PMS_P1;PMS_P2;Temp;Humidity;BMP_temperature;BMP_pressure;BME280_temperature;BME280_humidity;BME280_pressure;Samples;Min_cycle;Max_cycle;Signal;HPM_P1;HPM_P2
2023/03/23 00:01:19;;;;;;;0.80;0.80;;;18.10;62.80;;;;;;5062803;28;43829;-68
2023/03/23 00:03:46;;;;;;;0.70;0.70;;;18.10;62.90;;;;;;5064099;28;43828;-67
2023/03/23 00:06:16;;;;;;;0.70;0.70;;;18.20;62.70;;;;;;5059661;28;43398;-69
2023/03/23 00:08:45;;;;;;;0.83;0.83;;;18.30;62.30;;;;;;5051602;28;46009;-69
2023/03/23 00:11:14;;;;;;;0.80;0.80;;;18.40;62.10;;;;;;5059612;28;43344;-71
2023/03/23 00:13:41;;;;;;;0.80;0.80;;;18.40;61.90;;;;;;5059377;28;43343;-69
2023/03/23 00:16:16;;;;;;;0.80;0.80;;;18.40;62.00;;;;;;5068278;28;43490;-71
2023/03/23 00:18:45;;;;;;;0.87;0.87;;;18.30;62.10;;;;;;5065348;28;44244;-68
2023/03/23 00:21:11;;;;;;;0.90;0.90;;;18.40;62.10;;;;;;5064959;28;43409;-68
2023/03/23 00:23:39;;;;;;;0.77;0.77;;;18.30;62.00;;;;;;5049721;28;43499;-69
2023/03/23 00:26:06;;;;;;;0.80;0.80;;;18.30;62.10;;;;;;5060562;28;43415;-68
2023/03/23 00:28:33;;;;;;;0.83;0.83;;;18.20;62.20;;;;;;5055234;28;45331;-68
2023/03/23 00:31:00;;;;;;;0.80;0.80;;;18.20;62.40;;;;;;5062350;28;43549;-69
2023/03/23 00:33:30;;;;;;;1.00;1.00;;;18.20;62.50;;;;;;5048993;28;43368;-68
2023/03/23 00:35:57;;;;;;;0.70;0.70;;;18.20;62.40;;;;;;5062914;28;43402;-68
2023/03/23 00:38:24;;;;;;;0.80;0.80;;;18.20;62.40;;;;;;5042253;28;45676;-68
2023/03/23 00:40:51;;;;;;;0.70;0.70;;;18.20;62.50;;;;;;5061276;28;44080;-73
2023/03/23 00:43:18;;;;;;;0.80;0.80;;;18.10;62.60;;;;;;5064212;28;43390;-69
2023/03/23 00:45:49;;;;;;;0.70;0.70;;;18.10;62.80;;;;;;5044852;28;43908;-68
2023/03/23 00:48:16;;;;;;;0.83;0.83;;;18.10;62.80;;;;;;5072658;28;43885;-68
2023/03/23 00:50:44;;;;;;;0.90;0.90;;;18.20;62.70;;;;;;5068961;28;43415;-67
2023/03/23 00:53:11;;;;;;;0.70;0.70;;;18.20;62.70;;;;;;5056729;28;43409;-69
2023/03/23 00:55:38;;;;;;;0.63;0.63;;;18.10;62.70;;;;;;5068097;28;43411;-68
2023/03/23 00:58:05;;;;;;;0.80;0.80;;;18.10;62.80;;;;;;5063072;28;43864;-68
2023/03/23 01:00:32;;;;;;;0.70;0.70;;;18.10;63.00;;;;;;5057574;28;44984;-69
2023/03/23 01:02:58;;;;;;;0.77;0.77;;;18.10;63.10;;;;;;5076354;28;43378;-67
2023/03/23 01:05:31;;;;;;;0.80;0.80;;;18.20;62.70;;;;;;5054918;28;43535;-68
2023/03/23 01:08:00;;;;;;;0.60;0.60;;;18.30;62.20;;;;;;5056053;28;46609;-67
2023/03/23 01:10:27;;;;;;;0.80;0.80;;;18.40;62.00;;;;;;5063117;28;43407;-69
2023/03/23 01:12:54;;;;;;;0.60;0.60;;;18.40;62.00;;;;;;5063952;28;43482;-67
2023/03/23 01:15:23;;;;;;;0.80;0.80;;;18.30;62.00;;;;;;5077472;28;43410;-71
2023/03/23 01:17:50;;;;;;;0.67;0.67;;;18.30;62.10;;;;;;5051516;28;45683;-69
2023/03/23 01:20:17;;;;;;;0.90;0.90;;;18.30;62.10;;;;;;5060587;28;43321;-67
2023/03/23 01:22:44;;;;;;;0.50;0.50;;;18.40;62.20;;;;;;5055100;28;43423;-69
2023/03/23 01:25:12;;;;;;;0.80;0.80;;;18.30;62.20;;;;;;5059360;28;43381;-69
2023/03/23 01:27:40;;;;;;;0.83;0.83;;;18.20;62.30;;;;;;5067668;28;43689;-70
2023/03/23 01:30:07;;;;;;;0.80;0.80;;;18.20;62.50;;;;;;5052336;28;44583;-69
2023/03/23 01:32:35;;;;;;;1.13;0.80;;;18.20;62.70;;;;;;5065831;28;44090;-67
2023/03/23 01:35:02;;;;;;;0.73;0.73;;;18.20;62.50;;;;;;5055361;28;43404;-69
2023/03/23 01:37:30;;;;;;;0.60;0.60;;;18.20;62.50;;;;;;5042174;28;45563;-68
2023/03/23 01:39:57;;;;;;;0.90;0.90;;;18.20;62.60;;;;;;5057403;28;44392;-68
2023/03/23 01:42:28;;;;;;;0.83;0.83;;;18.10;62.70;;;;;;5051181;28;43862;-68
2023/03/23 01:45:24;;;;;;;0.70;0.70;;;18.10;62.90;;;;;;5054716;28;43622;-71
2023/03/23 01:47:53;;;;;;;0.87;0.87;;;18.10;62.90;;;;;;5064650;28;45942;-69
2023/03/23 01:50:22;;;;;;;0.70;0.70;;;18.30;62.60;;;;;;5076724;28;43417;-68
2023/03/23 01:52:51;;;;;;;0.83;0.83;;;18.30;62.20;;;;;;5054130;28;43437;-70
2023/03/23 01:55:20;;;;;;;0.83;0.83;;;18.30;62.10;;;;;;5053026;28;43489;-70
2023/03/23 01:57:50;;;;;;;0.60;0.60;;;18.30;62.10;;;;;;5050275;28;45761;-69
2023/03/23 02:00:18;;;;;;;0.70;0.70;;;18.30;62.40;;;;;;5062291;28;44273;-69
2023/03/23 02:02:53;;;;;;;0.70;0.70;;;18.30;62.30;;;;;;5050202;28;43423;-70
2023/03/23 02:05:25;;;;;;;0.70;0.70;;;18.30;62.30;;;;;;5051669;28;44005;-69
2023/03/23 02:07:53;;;;;;;0.80;0.80;;;18.30;62.40;;;;;;5053114;28;45668;-68
2023/03/23 02:10:20;;;;;;;0.70;0.70;;;18.20;62.40;;;;;;5048672;28;45779;-70
2023/03/23 02:12:47;;;;;;;0.83;0.83;;;18.20;62.70;;;;;;5051638;28;43508;-68
2023/03/23 02:15:15;;;;;;;0.73;0.73;;;18.10;62.80;;;;;;5054360;28;43567;-69
2023/03/23 02:17:47;;;;;;;0.80;0.80;;;18.20;62.70;;;;;;5050931;28;44305;-68
2023/03/23 02:20:29;;;;;;;0.80;0.80;;;18.20;62.60;;;;;;5048657;28;45083;-68
2023/03/23 02:23:18;;;;;;;0.70;0.70;;;18.20;62.70;;;;;;5048655;28;43474;-69
2023/03/23 02:26:09;;;;;;;0.70;0.70;;;18.10;62.80;;;;;;5040138;28;43621;-68
2023/03/23 02:28:56;;;;;;;0.70;0.70;;;18.10;63.00;;;;;;5043136;28;45740;-67
2023/03/23 02:31:44;;;;;;;0.83;0.77;;;18.10;63.00;;;;;;5052360;28;45100;-68
2023/03/23 02:34:14;;;;;;;0.80;0.80;;;18.30;62.70;;;;;;5051787;28;43412;-68
2023/03/23 02:36:43;;;;;;;0.70;0.70;;;18.30;62.30;;;;;;5064914;28;43435;-68
2023/03/23 02:39:11;;;;;;;0.73;0.73;;;18.30;62.20;;;;;;5053896;28;45553;-69
2023/03/23 02:41:40;;;;;;;0.70;0.70;;;18.30;62.30;;;;;;5056871;28;44739;-70
2023/03/23 02:44:07;;;;;;;0.70;0.70;;;18.20;62.50;;;;;;5050568;28;43348;-68
2023/03/23 02:46:36;;;;;;;0.70;0.70;;;18.30;62.50;;;;;;5058009;28;44047;-67
2023/03/23 02:49:04;;;;;;;0.73;0.73;;;18.30;62.40;;;;;;5049064;28;46022;-68
2023/03/23 02:51:33;;;;;;;0.70;0.70;;;18.30;62.40;;;;;;5055301;28;44578;-68
2023/03/23 02:54:00;;;;;;;0.70;0.70;;;18.20;62.50;;;;;;5058263;28;43446;-67
2023/03/23 02:56:30;;;;;;;0.60;0.60;;;18.20;62.70;;;;;;5051657;28;43451;-69
2023/03/23 02:58:58;;;;;;;0.80;0.80;;;18.10;62.80;;;;;;5053710;28;43955;-69
2023/03/23 03:02:05;;;;;;;0.80;0.80;;;18.20;62.80;;;;;;5054594;28;44702;-69
2023/03/23 03:04:33;;;;;;;0.70;0.70;;;18.30;62.40;;;;;;5059571;28;43479;-69
2023/03/23 03:07:08;;;;;;;0.80;0.80;;;18.30;62.30;;;;;;5049182;28;43481;-68
2023/03/23 03:09:41;;;;;;;0.70;0.70;;;18.30;62.40;;;;;;5054960;28;45577;-68
2023/03/23 03:12:10;;;;;;;0.90;0.90;;;18.20;62.40;;;;;;5047560;28;43950;-69
2023/03/23 03:14:39;;;;;;;0.80;0.80;;;18.20;62.50;;;;;;5070181;28;43466;-68
2023/03/23 03:17:10;;;;;;;0.90;0.90;;;18.20;62.40;;;;;;5054697;28;43616;-68
2023/03/23 03:19:39;;;;;;;0.60;0.60;;;18.20;62.40;;;;;;5054977;28;44061;-70
2023/03/23 03:22:07;;;;;;;0.70;0.70;;;18.20;62.50;;;;;;5065398;28;43430;-71
2023/03/23 03:24:41;;;;;;;0.90;0.90;;;18.20;62.80;;;;;;5041843;28;43323;-72
2023/03/23 03:27:11;;;;;;;0.90;0.90;;;18.10;62.80;;;;;;5066848;28;43494;-67
2023/03/23 03:29:47;;;;;;;0.90;0.90;;;18.10;62.90;;;;;;5046920;28;45424;-68
2023/03/23 03:32:19;;;;;;;0.70;0.70;;;18.20;62.70;;;;;;5051043;28;44451;-68
2023/03/23 03:34:47;;;;;;;0.80;0.80;;;18.30;62.40;;;;;;5058368;28;43438;-67
2023/03/23 03:37:16;;;;;;;0.80;0.80;;;18.40;62.30;;;;;;5051912;28;43551;-68
2023/03/23 03:39:43;;;;;;;0.87;0.87;;;18.30;62.20;;;;;;5057368;28;45912;-68
2023/03/23 03:42:11;;;;;;;1.00;1.00;;;18.30;62.40;;;;;;5050501;28;44341;-67
2023/03/23 03:44:38;;;;;;;0.83;0.83;;;18.30;62.50;;;;;;5049305;28;43466;-69
2023/03/23 03:47:05;;;;;;;0.60;0.60;;;18.30;62.40;;;;;;5070659;28;43316;-68
2023/03/23 03:49:32;;;;;;;0.73;0.73;;;18.30;62.40;;;;;;5051641;28;45564;-69
2023/03/23 03:51:59;;;;;;;0.70;0.70;;;18.20;62.40;;;;;;5058653;28;43479;-68
2023/03/23 03:54:37;;;;;;;0.70;0.70;;;18.20;62.60;;;;;;5057358;28;43952;-69
2023/03/23 03:57:04;;;;;;;0.87;0.87;;;18.10;62.80;;;;;;5057966;28;43470;-67
2023/03/23 03:59:52;;;;;;;0.80;0.80;;;18.10;62.80;;;;;;5064166;28;43538;-69
2023/03/23 04:02:47;;;;;;;0.70;0.70;;;18.20;62.70;;;;;;5071916;28;43834;-69
2023/03/23 04:05:15;;;;;;;0.90;0.90;;;18.20;62.80;;;;;;5050122;28;43384;-71
2023/03/23 04:07:45;;;;;;;0.70;0.70;;;18.10;62.90;;;;;;5042589;28;43454;-69
2023/03/23 04:10:16;;;;;;;0.80;0.80;;;18.10;63.00;;;;;;5052333;28;45839;-68
2023/03/23 04:12:45;;;;;;;0.77;0.77;;;18.10;63.10;;;;;;5050293;28;44313;-68
2023/03/23 04:15:31;;;;;;;0.80;0.80;;;18.20;62.90;;;;;;5058758;28;43413;-70
2023/03/23 04:17:59;;;;;;;1.00;1.00;;;18.30;62.50;;;;;;5046465;28;43497;-68
2023/03/23 04:20:27;;;;;;;0.90;0.90;;;18.40;62.40;;;;;;5044993;28;44074;-68
2023/03/23 04:22:54;;;;;;;1.00;1.00;;;18.30;62.20;;;;;;5053224;28;44515;-68
2023/03/23 04:25:24;;;;;;;0.90;0.90;;;18.30;62.40;;;;;;5049525;28;43442;-69
2023/03/23 04:27:53;;;;;;;0.80;0.80;;;18.30;62.40;;;;;;5065125;28;43490;-68
2023/03/23 04:30:29;;;;;;;0.80;0.80;;;18.30;62.40;;;;;;5049834;28;43928;-70
2023/03/23 04:33:02;;;;;;;0.80;0.80;;;18.30;62.40;;;;;;5051917;28;44740;-68
2023/03/23 04:35:31;;;;;;;0.80;0.80;;;18.30;62.60;;;;;;5055209;28;43434;-69
2023/03/23 04:38:14;;;;;;;0.90;0.90;;;18.20;62.70;;;;;;5053966;28;43632;-68
2023/03/23 04:40:45;;;;;;;0.80;0.80;;;18.10;62.90;;;;;;5047536;28;43841;-68
2023/03/23 04:43:22;;;;;;;0.70;0.70;;;18.20;62.90;;;;;;5049848;28;43419;-68
2023/03/23 04:45:56;;;;;;;0.60;0.60;;;18.20;62.80;;;;;;5066743;28;43446;-69
2023/03/23 04:48:25;;;;;;;0.70;0.70;;;18.20;62.90;;;;;;5048187;28;43534;-68
2023/03/23 04:51:05;;;;;;;0.70;0.70;;;18.10;62.90;;;;;;5050220;28;44826;-69
2023/03/23 04:53:32;;;;;;;0.80;0.80;;;18.10;63.10;;;;;;5050986;28;43950;-68
2023/03/23 04:56:02;;;;;;;0.80;0.80;;;18.10;63.20;;;;;;5045479;28;43304;-68
2023/03/23 04:58:34;;;;;;;0.70;0.70;;;18.10;63.00;;;;;;5050847;28;43515;-70
2023/03/23 05:01:13;;;;;;;0.67;0.67;;;18.10;62.90;;;;;;5048830;28;44059;-70
2023/03/23 05:03:47;;;;;;;0.73;0.73;;;18.10;63.00;;;;;;5044341;28;45181;-69
2023/03/23 05:06:17;;;;;;;1.00;1.00;;;18.10;63.20;;;;;;5060759;28;43514;-68
2023/03/23 05:08:45;;;;;;;23.90;1.83;;;18.10;63.30;;;;;;5050218;28;43391;-68
2023/03/23 05:11:14;;;;;;;2.63;1.00;;;18.10;63.40;;;;;;5055306;28;45357;-67
2023/03/23 05:13:44;;;;;;;1.17;0.90;;;18.20;63.10;;;;;;5048526;28;44851;-68
2023/03/23 05:16:12;;;;;;;0.93;0.93;;;18.30;62.50;;;;;;5045817;28;43443;-69
2023/03/23 05:18:41;;;;;;;0.83;0.83;;;18.40;62.40;;;;;;5058053;28;43641;-71
2023/03/23 05:21:11;;;;;;;2.73;0.90;;;18.40;62.30;;;;;;5048613;28;45518;-67
2023/03/23 05:23:42;;;;;;;2.40;0.83;;;18.40;62.50;;;;;;5052507;28;43407;-70
2023/03/23 05:26:18;;;;;;;0.73;0.73;;;18.40;62.60;;;;;;5041379;28;43554;-68
2023/03/23 05:28:45;;;;;;;1.37;0.80;;;18.40;62.50;;;;;;5043313;28;43577;-68
2023/03/23 05:31:20;;;;;;;0.70;0.70;;;18.40;62.40;;;;;;5046881;28;44072;-69
2023/03/23 05:33:49;;;;;;;0.80;0.80;;;18.30;62.60;;;;;;5065747;28;43557;-68
2023/03/23 05:36:22;;;;;;;0.80;0.80;;;18.30;62.70;;;;;;5058991;28;43381;-67
2023/03/23 05:39:10;;;;;;;0.90;0.90;;;18.20;63.00;;;;;;5069107;28;43478;-72
2023/03/23 05:41:54;;;;;;;0.93;0.93;;;18.20;62.90;;;;;;5055887;28;45943;-70
2023/03/23 05:44:22;;;;;;;0.80;0.80;;;18.20;62.70;;;;;;5053739;28;43440;-69
2023/03/23 05:46:52;;;;;;;0.80;0.80;;;18.20;62.80;;;;;;5057894;28;43459;-70
2023/03/23 05:49:24;;;;;;;0.80;0.80;;;18.20;63.00;;;;;;5047563;28;43404;-68
2023/03/23 05:51:51;;;;;;;0.90;0.90;;;18.10;63.10;;;;;;5069597;28;43889;-68
2023/03/23 05:54:18;;;;;;;1.20;1.20;;;18.10;63.20;;;;;;5048028;28;44954;-68
2023/03/23 05:56:48;;;;;;;0.90;0.90;;;18.20;63.70;;;;;;5056791;28;43345;-70
2023/03/23 05:59:42;;;;;;;1.10;1.10;;;18.30;62.60;;;;;;5055761;28;43587;-70
2023/03/23 06:02:15;;;;;;;1.00;1.00;;;18.40;62.50;;;;;;5061694;28;43853;-70
2023/03/23 06:04:42;;;;;;;1.23;0.90;;;18.40;62.40;;;;;;5048693;28;44756;-68
2023/03/23 06:07:18;;;;;;;1.10;1.10;;;18.30;62.60;;;;;;5059879;28;43347;-69
2023/03/23 06:09:54;;;;;;;0.97;0.97;;;18.30;62.60;;;;;;5048116;28;43407;-68
2023/03/23 06:12:24;;;;;;;1.00;1.00;;;18.30;62.40;;;;;;5061093;28;43556;-70
2023/03/23 06:15:12;;;;;;;0.90;0.90;;;18.30;62.50;;;;;;5060889;28;43850;-71
2023/03/23 06:18:12;;;;;;;1.00;1.00;;;18.20;62.70;;;;;;5057550;28;44171;-71
2023/03/23 06:20:58;;;;;;;0.90;0.90;;;18.20;62.90;;;;;;5059240;28;43404;-68
2023/03/23 06:23:39;;;;;;;0.93;0.93;;;18.20;63.10;;;;;;5059799;28;44056;-69
2023/03/23 06:26:08;;;;;;;0.97;0.97;;;18.20;62.90;;;;;;5051483;28;45074;-69
2023/03/23 06:28:38;;;;;;;0.90;0.90;;;18.20;62.90;;;;;;5043565;28;43412;-69
2023/03/23 06:31:08;;;;;;;1.00;1.00;;;18.20;62.90;;;;;;5057276;28;43567;-70
2023/03/23 06:33:36;;;;;;;1.00;1.00;;;18.20;63.10;;;;;;5060895;28;43616;-71
2023/03/23 06:36:17;;;;;;;1.00;1.00;;;18.10;63.20;;;;;;5061787;28;43499;-68
2023/03/23 06:39:04;;;;;;;1.23;1.23;;;18.20;63.20;;;;;;5063709;28;43732;-68
2023/03/23 06:41:48;;;;;;;1.30;1.30;;;18.30;62.90;;;;;;5060146;28;43493;-68
2023/03/23 06:44:15;;;;;;;1.10;1.10;;;18.30;62.60;;;;;;5048416;28;46162;-67
2023/03/23 06:46:44;;;;;;;1.10;1.10;;;18.30;62.50;;;;;;5054191;28;44867;-70
2023/03/23 06:49:21;;;;;;;1.30;1.30;;;18.30;62.60;;;;;;5054413;28;43415;-70
2023/03/23 06:51:56;;;;;;;1.13;1.13;;;18.20;62.80;;;;;;5048824;28;43406;-69
2023/03/23 06:54:26;;;;;;;1.03;1.03;;;18.30;62.70;;;;;;5052221;28;46022;-72
2023/03/23 06:56:53;;;;;;;0.80;0.80;;;18.30;62.60;;;;;;5051229;28;43577;-70
2023/03/23 06:59:23;;;;;;;1.20;1.20;;;18.30;62.70;;;;;;5042643;28;43659;-68
2023/03/23 07:01:51;;;;;;;1.00;1.00;;;18.20;62.80;;;;;;5048147;28;44060;-71
2023/03/23 07:04:19;;;;;;;1.07;1.07;;;18.20;63.00;;;;;;5060778;28;43846;-68
2023/03/23 07:07:14;;;;;;;1.07;1.07;;;18.20;63.20;;;;;;5060727;28;43607;-69
2023/03/23 07:09:49;;;;;;;1.20;1.20;;;18.20;63.00;;;;;;5056530;28;43512;-67
2023/03/23 07:12:20;;;;;;;1.03;1.03;;;18.20;62.90;;;;;;5060597;28;43711;-68
2023/03/23 07:14:49;;;;;;;0.90;0.90;;;18.20;63.00;;;;;;5060049;28;45592;-69
2023/03/23 07:17:17;;;;;;;1.17;1.17;;;18.10;63.10;;;;;;5067313;28;43363;-67
2023/03/23 07:20:03;;;;;;;1.33;1.33;;;18.10;63.30;;;;;;5050080;28;43411;-69
2023/03/23 07:22:30;;;;;;;1.30;1.30;;;18.20;63.30;;;;;;5050734;28;43622;-67
2023/03/23 07:25:07;;;;;;;0.90;0.90;;;18.30;63.00;;;;;;5054122;28;44180;-69
2023/03/23 07:27:45;;;;;;;1.13;1.13;;;18.40;62.60;;;;;;5052972;28;44885;-70
2023/03/23 07:30:14;;;;;;;1.10;1.10;;;18.50;62.40;;;;;;5057235;28;43440;-68
2023/03/23 07:32:44;;;;;;;1.40;1.40;;;18.40;62.20;;;;;;5043817;28;43559;-70
2023/03/23 07:35:11;;;;;;;1.13;1.13;;;18.40;62.50;;;;;;5053321;28;44044;-74
2023/03/23 07:38:04;;;;;;;1.10;1.10;;;18.40;62.40;;;;;;5067781;28;43422;-68
2023/03/23 07:40:34;;;;;;;1.40;1.40;;;18.40;62.40;;;;;;5051714;28;43408;-68
2023/03/23 07:43:06;;;;;;;1.17;1.17;;;18.40;62.50;;;;;;5057036;28;43442;-70
2023/03/23 07:45:59;;;;;;;1.00;1.00;;;18.30;62.60;;;;;;5065922;28;43616;-68
2023/03/23 07:48:38;;;;;;;1.00;1.00;;;18.30;62.80;;;;;;5053274;28;43498;-70
2023/03/23 07:51:06;;;;;;;1.37;1.37;;;18.20;62.90;;;;;;5054778;28;43764;-67
2023/03/23 07:53:37;;;;;;;1.20;1.20;;;18.30;62.90;;;;;;5048729;28;43423;-68
2023/03/23 07:56:28;;;;;;;1.00;1.00;;;18.30;62.80;;;;;;5056964;28;44097;-68
2023/03/23 07:59:21;;;;;;;1.20;1.20;;;18.20;62.80;;;;;;5056370;28;44111;-70
2023/03/23 08:01:49;;;;;;;1.10;1.10;;;18.20;63.00;;;;;;5057001;28;43437;-69
2023/03/23 08:04:36;;;;;;;0.90;0.90;;;18.20;63.20;;;;;;5053755;28;43821;-67
2023/03/23 08:07:22;;;;;;;1.10;1.10;;;18.20;63.10;;;;;;5057694;28;44032;-68
2023/03/23 08:09:52;;;;;;;1.00;1.00;;;18.20;63.00;;;;;;5064111;28;43470;-68
2023/03/23 08:12:45;;;;;;;1.20;1.20;;;18.20;63.00;;;;;;5058247;28;43382;-68
2023/03/23 08:15:30;;;;;;;1.20;1.20;;;18.20;63.20;;;;;;5065004;28;44217;-68
2023/03/23 08:18:11;;;;;;;1.20;1.20;;;18.10;63.20;;;;;;5052234;28;46007;-74
2023/03/23 08:21:17;;;;;;;1.00;1.00;;;18.20;63.40;;;;;;5052138;28;43502;-67
2023/03/23 08:23:59;;;;;;;1.17;1.17;;;18.30;63.10;;;;;;5054868;28;43446;-69
2023/03/23 08:26:49;;;;;;;1.13;1.13;;;18.40;62.70;;;;;;5060362;28;43419;-68
2023/03/23 08:29:38;;;;;;;1.10;1.10;;;18.50;62.40;;;;;;5044512;28;43870;-70
2023/03/23 08:32:15;;;;;;;1.10;1.10;;;18.50;62.30;;;;;;5056997;28;44618;-69
2023/03/23 08:34:42;;;;;;;1.10;1.10;;;18.40;62.50;;;;;;5064175;28;43379;-72
2023/03/23 08:37:11;;;;;;;1.10;1.10;;;18.40;62.50;;;;;;5060079;28;43574;-70
2023/03/23 08:40:09;;;;;;;1.00;1.00;;;18.40;62.40;;;;;;5024645;28;43783;-68
2023/03/23 08:42:52;;;;;;;1.00;1.00;;;18.40;62.50;;;;;;5059685;28;44555;-69
2023/03/23 08:45:31;;;;;;;1.10;1.10;;;18.30;62.70;;;;;;5067497;28;44117;-68
2023/03/23 08:48:24;;;;;;;1.27;1.27;;;18.30;62.90;;;;;;5054892;28;43433;-68
2023/03/23 08:51:14;;;;;;;1.10;1.10;;;18.20;63.00;;;;;;5045520;28;43967;-69
2023/03/23 08:54:02;;;;;;;0.90;0.90;;;18.30;63.00;;;;;;5062349;28;43350;-68
2023/03/23 08:56:46;;;;;;;1.00;1.00;;;18.30;63.00;;;;;;5047569;28;43331;-67
2023/03/23 08:59:30;;;;;;;1.10;1.10;;;18.20;63.00;;;;;;5053637;28;43428;-70
2023/03/23 09:02:26;;;;;;;1.00;1.00;;;18.20;63.20;;;;;;5057580;28;43961;-68
2023/03/23 09:05:17;;;;;;;0.80;0.80;;;18.20;63.30;;;;;;5059157;28;43750;-69
2023/03/23 09:08:03;;;;;;;1.10;1.10;;;18.20;63.10;;;;;;5054979;28;43335;-67
2023/03/23 09:10:32;;;;;;;0.80;0.80;;;18.20;63.20;;;;;;5068336;28;43455;-69
2023/03/23 09:12:58;;;;;;;1.03;1.03;;;18.20;63.20;;;;;;5065971;28;43844;-68
2023/03/23 09:15:26;;;;;;;1.13;1.13;;;18.10;63.30;;;;;;5073317;28;43478;-69
2023/03/23 09:17:53;;;;;;;1.00;1.00;;;18.10;63.50;;;;;;5065870;28;43515;-69
2023/03/23 09:20:21;;;;;;;1.10;1.10;;;18.20;63.50;;;;;;5074088;28;43364;-71
2023/03/23 09:22:52;;;;;;;1.23;1.23;;;18.30;63.30;;;;;;5069785;28;43840;-69
2023/03/23 09:25:21;;;;;;;1.30;1.30;;;18.40;62.90;;;;;;5064552;28;43466;-68
2023/03/23 09:27:53;;;;;;;1.10;1.10;;;18.40;62.50;;;;;;5069048;28;43473;-68
2023/03/23 09:30:20;;;;;;;0.97;0.97;;;18.40;62.50;;;;;;5071910;28;43332;-69
2023/03/23 09:32:47;;;;;;;0.97;0.97;;;18.40;62.60;;;;;;5045603;28;45570;-68
2023/03/23 09:35:16;;;;;;;1.00;1.00;;;18.40;62.80;;;;;;5069962;28;43429;-68
2023/03/23 09:37:43;;;;;;;1.00;1.00;;;18.40;62.70;;;;;;5050307;28;43393;-70
2023/03/23 09:40:14;;;;;;;0.90;0.90;;;18.40;62.70;;;;;;5063772;28;43486;-67
2023/03/23 09:42:56;;;;;;;0.90;0.90;;;18.30;62.80;;;;;;5048982;28;45976;-73
2023/03/23 09:45:25;;;;;;;1.30;1.30;;;18.30;63.00;;;;;;5072971;28;43433;-68
2023/03/23 09:48:05;;;;;;;0.90;0.90;;;18.20;63.20;;;;;;5072153;28;43493;-70
2023/03/23 09:50:32;;;;;;;1.10;1.10;;;18.20;63.20;;;;;;5066827;28;43340;-69
2023/03/23 09:53:01;;;;;;;1.10;1.10;;;18.30;63.10;;;;;;5064608;28;43945;-67
2023/03/23 09:55:29;;;;;;;1.00;1.00;;;18.20;63.10;;;;;;5076202;28;43392;-68
2023/03/23 09:58:00;;;;;;;0.97;0.97;;;18.20;63.20;;;;;;5062719;28;43414;-69
2023/03/23 10:00:31;;;;;;;1.00;1.00;;;18.20;63.30;;;;;;5068223;28;43455;-71
2023/03/23 10:03:02;;;;;;;1.00;1.00;;;18.10;63.40;;;;;;5045333;28;45715;-68
2023/03/23 10:05:33;;;;;;;0.90;0.90;;;18.10;63.40;;;;;;5053948;28;44717;-69
2023/03/23 10:08:00;;;;;;;1.00;1.00;;;18.20;63.40;;;;;;5077620;28;43406;-69
2023/03/23 10:10:32;;;;;;;1.00;1.00;;;18.20;63.30;;;;;;5073727;28;43479;-68
2023/03/23 10:13:03;;;;;;;1.20;1.20;;;18.20;63.40;;;;;;5070446;28;43702;-69
2023/03/23 10:15:31;;;;;;;1.10;1.10;;;18.10;63.50;;;;;;5076811;28;43355;-68
2023/03/23 10:18:00;;;;;;;1.10;1.10;;;18.10;63.70;;;;;;5070265;28;43439;-69
2023/03/23 10:20:38;;;;;;;1.13;1.13;;;18.20;63.70;;;;;;5066611;28;43493;-69
2023/03/23 10:23:14;;;;;;;1.07;1.07;;;18.30;63.30;;;;;;5062210;28;43880;-68
2023/03/23 10:25:43;;;;;;;1.00;1.00;;;18.40;62.90;;;;;;5057916;28;45328;-74
2023/03/23 10:28:13;;;;;;;1.00;1.00;;;18.40;62.70;;;;;;5071080;28;43411;-67
2023/03/23 10:30:42;;;;;;;1.00;1.00;;;18.40;62.70;;;;;;5070263;28;43893;-69
2023/03/23 10:33:13;;;;;;;1.10;1.10;;;18.30;62.80;;;;;;5062586;28;43691;-70
2023/03/23 10:35:42;;;;;;;0.90;0.90;;;18.40;62.90;;;;;;5073404;28;43324;-67
2023/03/23 10:38:12;;;;;;;1.00;1.00;;;18.40;62.90;;;;;;5066076;28;43990;-68
2023/03/23 10:40:47;;;;;;;1.13;1.13;;;18.30;62.80;;;;;;5055103;28;43437;-68
2023/03/23 10:43:15;;;;;;;1.00;1.00;;;18.30;63.00;;;;;;5057315;28;45894;-70
2023/03/23 10:45:43;;;;;;;1.00;1.00;;;18.20;63.20;;;;;;5064720;28;43359;-70
2023/03/23 10:48:12;;;;;;;1.03;1.03;;;18.20;63.50;;;;;;5060986;28;43400;-67
2023/03/23 10:50:39;;;;;;;1.10;1.10;;;18.20;63.40;;;;;;5065318;28;43492;-69
2023/03/23 10:53:12;;;;;;;0.80;0.80;;;18.20;63.20;;;;;;5066304;28;43580;-69
2023/03/23 10:55:40;;;;;;;1.00;1.00;;;18.20;63.30;;;;;;5067399;28;43357;-68
2023/03/23 10:58:08;;;;;;;1.07;1.07;;;18.10;63.40;;;;;;5054128;28;43363;-69
2023/03/23 11:00:42;;;;;;;1.03;1.03;;;18.10;63.50;;;;;;5073700;28;43442;-68
2023/03/23 11:03:23;;;;;;;1.07;1.07;;;18.10;63.70;;;;;;5071060;28;43603;-67
2023/03/23 11:05:51;;;;;;;0.90;0.90;;;18.20;63.60;;;;;;5054927;28;44999;-71
2023/03/23 11:08:19;;;;;;;1.00;1.00;;;18.30;63.30;;;;;;5076191;28;43439;-68
2023/03/23 11:10:49;;;;;;;1.03;1.03;;;18.40;63.00;;;;;;5066587;28;43563;-69
2023/03/23 11:13:19;;;;;;;0.90;0.90;;;18.40;62.90;;;;;;5071088;28;43603;-67
2023/03/23 11:15:48;;;;;;;0.90;0.90;;;18.30;62.90;;;;;;5071567;28;43446;-68
2023/03/23 11:18:20;;;;;;;1.10;1.10;;;18.30;63.40;;;;;;5059885;28;43410;-68
2023/03/23 11:20:49;;;;;;;1.00;1.00;;;18.30;63.00;;;;;;5046587;28;43541;-68
2023/03/23 11:23:20;;;;;;;1.10;1.10;;;18.30;63.00;;;;;;5053542;28;45801;-68
2023/03/23 11:26:02;;;;;;;1.00;1.00;;;18.30;63.10;;;;;;5076383;28;43424;-69
2023/03/23 11:28:32;;;;;;;1.00;1.00;;;18.20;63.20;;;;;;5061285;28;43569;-67
2023/03/23 11:31:02;;;;;;;1.07;1.07;;;18.20;63.50;;;;;;5069206;28;43619;-68
2023/03/23 11:33:36;;;;;;;0.97;0.97;;;18.20;63.50;;;;;;5061893;28;43897;-69
2023/03/23 11:36:03;;;;;;;0.90;0.90;;;18.20;63.30;;;;;;5068013;28;43418;-68
2023/03/23 11:38:30;;;;;;;0.97;0.97;;;18.20;63.30;;;;;;5066498;28;43478;-68
2023/03/23 11:40:58;;;;;;;1.00;1.00;;;18.20;63.50;;;;;;5063737;28;43441;-68
2023/03/23 11:43:26;;;;;;;0.90;0.90;;;18.20;63.70;;;;;;5060125;28;43839;-70
2023/03/23 11:46:02;;;;;;;0.90;0.90;;;18.10;63.80;;;;;;5063223;28;43826;-68
2023/03/23 11:48:34;;;;;;;1.07;1.07;;;18.10;63.70;;;;;;5063026;28;43442;-70
2023/03/23 11:51:02;;;;;;;0.80;0.80;;;18.20;63.50;;;;;;5066309;28;43462;-69
2023/03/23 11:53:36;;;;;;;0.97;0.97;;;18.20;63.60;;;;;;5066823;28;44089;-67
2023/03/23 11:56:10;;;;;;;1.00;1.00;;;18.10;63.60;;;;;;5048097;28;44701;-69
2023/03/23 11:58:37;;;;;;;1.20;1.10;;;18.10;63.80;;;;;;5066634;28;43337;-69
2023/03/23 12:01:12;;;;;;;1.10;1.10;;;18.10;63.90;;;;;;5059819;28;43454;-69
2023/03/23 12:03:56;;;;;;;1.20;1.20;;;18.20;63.80;;;;;;5066588;28;43738;-67
2023/03/23 12:06:27;;;;;;;1.00;1.00;;;18.30;63.40;;;;;;5064684;28;43407;-68
2023/03/23 12:09:06;;;;;;;1.00;1.00;;;18.40;63.00;;;;;;5067182;28;43548;-71
2023/03/23 12:11:38;;;;;;;0.97;0.97;;;18.40;62.80;;;;;;5072073;28;43344;-69
2023/03/23 12:14:13;;;;;;;1.07;1.07;;;18.40;62.90;;;;;;5058154;28;45800;-68
2023/03/23 12:16:49;;;;;;;0.90;0.90;;;18.40;63.00;;;;;;5046335;28;45088;-69
2023/03/23 12:19:22;;;;;;;0.80;0.80;;;18.40;62.90;;;;;;5054040;28;43426;-69
2023/03/23 12:21:55;;;;;;;0.80;0.80;;;18.40;63.60;;;;;;5052598;28;43428;-68
2023/03/23 12:24:31;;;;;;;1.00;1.00;;;18.30;63.00;;;;;;5062303;28;43609;-68
2023/03/23 12:27:01;;;;;;;1.10;1.10;;;18.30;63.20;;;;;;5060269;28;43435;-67
2023/03/23 12:29:49;;;;;;;1.00;1.00;;;18.20;63.40;;;;;;5063605;28;43395;-67
2023/03/23 12:32:36;;;;;;;1.00;1.00;;;18.20;63.50;;;;;;5062898;28;43490;-69
2023/03/23 12:35:13;;;;;;;0.90;0.90;;;18.20;63.30;;;;;;5068547;28;44339;-69
2023/03/23 12:37:46;;;;;;;1.07;1.07;;;18.20;63.40;;;;;;5064048;28;43468;-68
2023/03/23 12:40:25;;;;;;;0.80;0.80;;;18.20;63.50;;;;;;5059636;28;43458;-69
2023/03/23 12:42:56;;;;;;;1.00;1.00;;;18.10;63.70;;;;;;5071025;28;43991;-68
2023/03/23 12:45:26;;;;;;;0.87;0.87;;;18.10;63.90;;;;;;5078816;28;43896;-68
2023/03/23 12:47:58;;;;;;;1.00;1.00;;;18.20;63.70;;;;;;5065977;28;43364;-69
2023/03/23 12:50:28;;;;;;;0.90;0.90;;;18.30;63.30;;;;;;5057566;28;43386;-69
2023/03/23 12:52:58;;;;;;;0.80;0.80;;;18.40;63.10;;;;;;5054727;28;44128;-68
2023/03/23 12:55:28;;;;;;;0.80;0.80;;;18.40;63.00;;;;;;5069641;28;43691;-68
2023/03/23 12:57:59;;;;;;;0.90;0.90;;;18.30;63.00;;;;;;5074974;28;43513;-68
2023/03/23 13:00:29;;;;;;;0.90;0.90;;;18.30;63.30;;;;;;5069612;28;43420;-69
2023/03/23 13:03:00;;;;;;;0.90;0.90;;;18.30;63.20;;;;;;5071486;28;43440;-69
2023/03/23 13:05:30;;;;;;;0.93;0.93;;;18.30;63.10;;;;;;5072572;28;43977;-69
2023/03/23 13:08:00;;;;;;;0.90;0.90;;;18.30;64.00;;;;;;5074894;28;43432;-69
2023/03/23 13:10:29;;;;;;;1.03;1.03;;;18.20;63.30;;;;;;5060723;28;43423;-69
2023/03/23 13:12:56;;;;;;;0.97;0.97;;;18.20;63.50;;;;;;5073070;28;43439;-71
2023/03/23 13:15:28;;;;;;;0.80;0.80;;;18.20;63.70;;;;;;5044265;28;45771;-67
2023/03/23 13:17:59;;;;;;;0.97;0.97;;;18.20;63.60;;;;;;5072540;28;43481;-67